sensor_id;sensor_type;location;lat;lon;timestamp;P1;durP1;ratioP1;P2;durP2;ratioP2
78844;SDS011;68195;50.854;2.860;2023-04-01T00:01:01;3.28;;;1.70;;
78844;SDS011;68195;50.854;2.860;2023-04-01T00:03:28;5.88;;;2.22;;
78844;SDS011;68195;50.854;2.860;2023-04-01T00:05:55;9.73;;;2.22;;
78844;SDS011;68195;50.854;2.860;2023-04-01T00:08:21;3.95;;;1.50;;
78844;SDS011;68195;50.854;2.860;2023-04-01T00:10:47;5.25;;;1.60;;
78844;SDS011;68195;50.854;2.860;2023-04-01T00:13:15;6.05;;;1.92;;
78844;SDS011;68195;50.854;2.860;2023-04-01T00:15:47;2.80;;;1.92;;
78844;SDS011;68195;50.854;2.860;2023-04-01T00:18:15;5.55;;;2.08;;
78844;SDS011;68195;50.854;2.860;2023-04-01T00:20:45;5.63;;;1.83;;
78844;SDS011;68195;50.854;2.860;2023-04-01T00:23:15;4.80;;;1.92;;
78844;SDS011;68195;50.854;2.860;2023-04-01T00:25:43;7.63;;;2.33;;
78844;SDS011;68195;50.854;2.860;2023-04-01T00:28:13;6.80;;;2.10;;
78844;SDS011;68195;50.854;2.860;2023-04-01T00:30:39;4.07;;;1.83;;
78844;SDS011;68195;50.854;2.860;2023-04-01T00:33:05;7.20;;;2.30;;
78844;SDS011;68195;50.854;2.860;2023-04-01T00:35:35;5.70;;;2.00;;
78844;SDS011;68195;50.854;2.860;2023-04-01T00:38:03;7.03;;;2.30;;
78844;SDS011;68195;50.854;2.860;2023-04-01T00:40:31;6.35;;;2.88;;
78844;SDS011;68195;50.854;2.860;2023-04-01T00:43:00;5.95;;;2.40;;
78844;SDS011;68195;50.854;2.860;2023-04-01T00:45:33;6.30;;;2.53;;
78844;SDS011;68195;50.854;2.860;2023-04-01T00:48:07;7.93;;;3.15;;
78844;SDS011;68195;50.854;2.860;2023-04-01T00:50:43;7.25;;;2.92;;
78844;SDS011;68195;50.854;2.860;2023-04-01T00:53:13;10.38;;;3.20;;
78844;SDS011;68195;50.854;2.860;2023-04-01T00:55:42;7.57;;;2.72;;
78844;SDS011;68195;50.854;2.860;2023-04-01T00:58:14;5.07;;;2.63;;
78844;SDS011;68195;50.854;2.860;2023-04-01T01:00:48;5.97;;;2.50;;
78844;SDS011;68195;50.854;2.860;2023-04-01T01:03:15;7.22;;;2.90;;
78844;SDS011;68195;50.854;2.860;2023-04-01T01:08:18;11.95;;;3.33;;
78844;SDS011;68195;50.854;2.860;2023-04-01T01:11:02;8.23;;;2.80;;
78844;SDS011;68195;50.854;2.860;2023-04-01T01:13:43;7.35;;;3.65;;
78844;SDS011;68195;50.854;2.860;2023-04-01T01:16:15;7.18;;;3.20;;
78844;SDS011;68195;50.854;2.860;2023-04-01T01:27:12;9.45;;;3.80;;
78844;SDS011;68195;50.854;2.860;2023-04-01T01:38:06;9.93;;;3.28;;
78844;SDS011;68195;50.854;2.860;2023-04-01T01:40:39;8.95;;;3.78;;
78844;SDS011;68195;50.854;2.860;2023-04-01T01:43:08;7.07;;;3.75;;
78844;SDS011;68195;50.854;2.860;2023-04-01T01:45:36;9.15;;;4.00;;
78844;SDS011;68195;50.854;2.860;2023-04-01T01:48:08;13.65;;;4.13;;
78844;SDS011;68195;50.854;2.860;2023-04-01T01:50:37;12.93;;;4.00;;
78844;SDS011;68195;50.854;2.860;2023-04-01T01:53:06;6.45;;;3.90;;
78844;SDS011;68195;50.854;2.860;2023-04-01T01:55:37;8.68;;;4.00;;
78844;SDS011;68195;50.854;2.860;2023-04-01T01:58:51;7.60;;;3.85;;
78844;SDS011;68195;50.854;2.860;2023-04-01T02:01:06;6.95;;;3.33;;
78844;SDS011;68195;50.854;2.860;2023-04-01T02:03:38;7.93;;;3.80;;
78844;SDS011;68195;50.854;2.860;2023-04-01T02:06:08;7.25;;;3.25;;
78844;SDS011;68195;50.854;2.860;2023-04-01T02:11:45;10.10;;;3.90;;
78844;SDS011;68195;50.854;2.860;2023-04-01T02:19:27;7.10;;;3.28;;
78844;SDS011;68195;50.854;2.860;2023-04-01T02:22:00;8.85;;;3.38;;
78844;SDS011;68195;50.854;2.860;2023-04-01T02:24:28;5.95;;;2.60;;
78844;SDS011;68195;50.854;2.860;2023-04-01T02:26:56;10.63;;;3.40;;
78844;SDS011;68195;50.854;2.860;2023-04-01T02:29:23;9.02;;;3.58;;
78844;SDS011;68195;50.854;2.860;2023-04-01T02:31:52;8.10;;;3.55;;
78844;SDS011;68195;50.854;2.860;2023-04-01T02:34:19;6.03;;;3.53;;
78844;SDS011;68195;50.854;2.860;2023-04-01T02:36:47;8.15;;;4.05;;
78844;SDS011;68195;50.854;2.860;2023-04-01T02:39:14;9.85;;;4.63;;
78844;SDS011;68195;50.854;2.860;2023-04-01T02:41:43;8.63;;;4.72;;
78844;SDS011;68195;50.854;2.860;2023-04-01T02:44:13;9.90;;;4.57;;
78844;SDS011;68195;50.854;2.860;2023-04-01T02:46:39;9.10;;;4.32;;
78844;SDS011;68195;50.854;2.860;2023-04-01T02:49:09;12.43;;;4.75;;
78844;SDS011;68195;50.854;2.860;2023-04-01T02:51:37;8.68;;;4.78;;
78844;SDS011;68195;50.854;2.860;2023-04-01T02:54:02;10.80;;;4.70;;
78844;SDS011;68195;50.854;2.860;2023-04-01T02:56:28;10.68;;;5.15;;
78844;SDS011;68195;50.854;2.860;2023-04-01T02:58:56;12.85;;;4.35;;
78844;SDS011;68195;50.854;2.860;2023-04-01T03:01:23;11.32;;;5.13;;
78844;SDS011;68195;50.854;2.860;2023-04-01T03:03:52;9.18;;;4.55;;
78844;SDS011;68195;50.854;2.860;2023-04-01T03:06:19;10.07;;;4.75;;
78844;SDS011;68195;50.854;2.860;2023-04-01T03:08:45;12.88;;;5.22;;
78844;SDS011;68195;50.854;2.860;2023-04-01T03:11:13;12.23;;;5.65;;
78844;SDS011;68195;50.854;2.860;2023-04-01T03:13:43;11.52;;;5.35;;
78844;SDS011;68195;50.854;2.860;2023-04-01T03:16:08;9.95;;;4.75;;
78844;SDS011;68195;50.854;2.860;2023-04-01T03:18:36;9.95;;;5.65;;
78844;SDS011;68195;50.854;2.860;2023-04-01T03:23:40;11.82;;;4.97;;
78844;SDS011;68195;50.854;2.860;2023-04-01T03:26:08;8.73;;;4.45;;
78844;SDS011;68195;50.854;2.860;2023-04-01T03:28:33;10.73;;;5.25;;
78844;SDS011;68195;50.854;2.860;2023-04-01T03:31:01;9.82;;;5.22;;
78844;SDS011;68195;50.854;2.860;2023-04-01T03:33:27;9.52;;;4.72;;
78844;SDS011;68195;50.854;2.860;2023-04-01T03:35:55;7.55;;;4.35;;
78844;SDS011;68195;50.854;2.860;2023-04-01T03:38:20;9.75;;;4.43;;
78844;SDS011;68195;50.854;2.860;2023-04-01T03:40:48;10.32;;;4.63;;
78844;SDS011;68195;50.854;2.860;2023-04-01T03:43:13;8.70;;;4.40;;
78844;SDS011;68195;50.854;2.860;2023-04-01T03:45:44;9.68;;;4.03;;
78844;SDS011;68195;50.854;2.860;2023-04-01T03:48:10;9.73;;;4.43;;
78844;SDS011;68195;50.854;2.860;2023-04-01T03:50:35;10.55;;;4.90;;
78844;SDS011;68195;50.854;2.860;2023-04-01T03:53:03;9.82;;;5.70;;
78844;SDS011;68195;50.854;2.860;2023-04-01T03:55:31;9.32;;;4.35;;
78844;SDS011;68195;50.854;2.860;2023-04-01T03:57:57;7.63;;;4.32;;
78844;SDS011;68195;50.854;2.860;2023-04-01T04:00:22;8.18;;;4.30;;
78844;SDS011;68195;50.854;2.860;2023-04-01T04:02:47;8.45;;;4.93;;
78844;SDS011;68195;50.854;2.860;2023-04-01T04:05:15;7.50;;;4.00;;
78844;SDS011;68195;50.854;2.860;2023-04-01T04:07:40;8.20;;;4.65;;
78844;SDS011;68195;50.854;2.860;2023-04-01T04:10:06;9.20;;;4.45;;
78844;SDS011;68195;50.854;2.860;2023-04-01T04:12:32;10.20;;;4.82;;
78844;SDS011;68195;50.854;2.860;2023-04-01T04:15:00;10.55;;;4.97;;
78844;SDS011;68195;50.854;2.860;2023-04-01T04:17:28;9.55;;;5.68;;
78844;SDS011;68195;50.854;2.860;2023-04-01T04:19:54;7.00;;;4.35;;
78844;SDS011;68195;50.854;2.860;2023-04-01T04:22:19;8.27;;;4.75;;
78844;SDS011;68195;50.854;2.860;2023-04-01T04:24:47;8.82;;;3.92;;
78844;SDS011;68195;50.854;2.860;2023-04-01T04:27:13;6.40;;;4.13;;
78844;SDS011;68195;50.854;2.860;2023-04-01T04:29:43;8.75;;;4.30;;
78844;SDS011;68195;50.854;2.860;2023-04-01T04:32:11;7.85;;;4.00;;
78844;SDS011;68195;50.854;2.860;2023-04-01T04:34:36;5.15;;;3.50;;
78844;SDS011;68195;50.854;2.860;2023-04-01T04:37:05;5.20;;;3.80;;
78844;SDS011;68195;50.854;2.860;2023-04-01T04:39:33;6.50;;;3.38;;
78844;SDS011;68195;50.854;2.860;2023-04-01T04:42:01;7.13;;;3.55;;
78844;SDS011;68195;50.854;2.860;2023-04-01T04:44:30;5.68;;;3.35;;
78844;SDS011;68195;50.854;2.860;2023-04-01T04:46:57;4.80;;;3.13;;
78844;SDS011;68195;50.854;2.860;2023-04-01T04:49:25;5.10;;;3.15;;
78844;SDS011;68195;50.854;2.860;2023-04-01T04:51:51;7.68;;;3.45;;
78844;SDS011;68195;50.854;2.860;2023-04-01T04:56:44;9.82;;;4.22;;
78844;SDS011;68195;50.854;2.860;2023-04-01T04:59:12;7.43;;;4.07;;
78844;SDS011;68195;50.854;2.860;2023-04-01T05:01:40;8.20;;;4.05;;
78844;SDS011;68195;50.854;2.860;2023-04-01T05:04:08;7.97;;;4.40;;
78844;SDS011;68195;50.854;2.860;2023-04-01T05:06:33;7.95;;;4.65;;
78844;SDS011;68195;50.854;2.860;2023-04-01T05:09:01;11.13;;;4.72;;
78844;SDS011;68195;50.854;2.860;2023-04-01T05:11:27;8.77;;;4.30;;
78844;SDS011;68195;50.854;2.860;2023-04-01T05:13:55;6.82;;;4.40;;
78844;SDS011;68195;50.854;2.860;2023-04-01T05:16:20;6.68;;;4.18;;
78844;SDS011;68195;50.854;2.860;2023-04-01T05:18:48;6.22;;;4.18;;
78844;SDS011;68195;50.854;2.860;2023-04-01T05:21:16;7.38;;;4.10;;
78844;SDS011;68195;50.854;2.860;2023-04-01T05:23:46;7.22;;;4.22;;
78844;SDS011;68195;50.854;2.860;2023-04-01T05:26:15;6.88;;;4.05;;
78844;SDS011;68195;50.854;2.860;2023-04-01T05:28:43;9.35;;;4.20;;
78844;SDS011;68195;50.854;2.860;2023-04-01T05:31:10;8.02;;;4.15;;
78844;SDS011;68195;50.854;2.860;2023-04-01T05:33:38;6.97;;;3.88;;
78844;SDS011;68195;50.854;2.860;2023-04-01T05:36:07;8.40;;;3.72;;
78844;SDS011;68195;50.854;2.860;2023-04-01T05:38:41;8.55;;;4.18;;
78844;SDS011;68195;50.854;2.860;2023-04-01T05:41:08;8.00;;;4.05;;
78844;SDS011;68195;50.854;2.860;2023-04-01T05:43:35;6.15;;;3.72;;
78844;SDS011;68195;50.854;2.860;2023-04-01T05:46:04;7.03;;;4.45;;
78844;SDS011;68195;50.854;2.860;2023-04-01T05:48:33;8.05;;;4.55;;
78844;SDS011;68195;50.854;2.860;2023-04-01T05:51:00;6.20;;;3.97;;
78844;SDS011;68195;50.854;2.860;2023-04-01T05:53:27;8.93;;;4.57;;
78844;SDS011;68195;50.854;2.860;2023-04-01T05:55:55;6.30;;;4.07;;
78844;SDS011;68195;50.854;2.860;2023-04-01T05:58:21;6.80;;;3.55;;
78844;SDS011;68195;50.854;2.860;2023-04-01T06:00:48;6.68;;;4.22;;
78844;SDS011;68195;50.854;2.860;2023-04-01T06:03:16;6.93;;;4.38;;
78844;SDS011;68195;50.854;2.860;2023-04-01T06:05:44;7.18;;;4.20;;
78844;SDS011;68195;50.854;2.860;2023-04-01T06:08:13;6.85;;;3.88;;
78844;SDS011;68195;50.854;2.860;2023-04-01T06:13:16;7.93;;;4.43;;
78844;SDS011;68195;50.854;2.860;2023-04-01T06:24:27;5.85;;;3.15;;
78844;SDS011;68195;50.854;2.860;2023-04-01T06:29:58;4.10;;;2.60;;
78844;SDS011;68195;50.854;2.860;2023-04-01T06:43:19;6.18;;;3.70;;
78844;SDS011;68195;50.854;2.860;2023-04-01T06:45:50;5.78;;;3.10;;
78844;SDS011;68195;50.854;2.860;2023-04-01T06:56:25;4.68;;;3.40;;
78844;SDS011;68195;50.854;2.860;2023-04-01T07:01:59;4.68;;;2.58;;
78844;SDS011;68195;50.854;2.860;2023-04-01T07:04:37;4.78;;;2.88;;
78844;SDS011;68195;50.854;2.860;2023-04-01T07:09:53;3.95;;;2.50;;
78844;SDS011;68195;50.854;2.860;2023-04-01T07:14:52;4.40;;;2.20;;
78844;SDS011;68195;50.854;2.860;2023-04-01T07:17:33;3.80;;;2.15;;
78844;SDS011;68195;50.854;2.860;2023-04-01T07:20:15;2.55;;;1.48;;
78844;SDS011;68195;50.854;2.860;2023-04-01T07:22:43;4.47;;;2.17;;
78844;SDS011;68195;50.854;2.860;2023-04-01T07:25:14;3.03;;;2.20;;
78844;SDS011;68195;50.854;2.860;2023-04-01T07:27:42;4.55;;;2.42;;
78844;SDS011;68195;50.854;2.860;2023-04-01T07:30:14;4.78;;;2.10;;
78844;SDS011;68195;50.854;2.860;2023-04-01T07:49:08;5.32;;;2.20;;
78844;SDS011;68195;50.854;2.860;2023-04-01T07:51:44;3.50;;;2.28;;
78844;SDS011;68195;50.854;2.860;2023-04-01T07:57:27;5.45;;;1.92;;
78844;SDS011;68195;50.854;2.860;2023-04-01T08:05:54;4.05;;;2.35;;
78844;SDS011;68195;50.854;2.860;2023-04-01T08:21:52;3.08;;;1.70;;
78844;SDS011;68195;50.854;2.860;2023-04-01T08:24:40;3.35;;;1.60;;
78844;SDS011;68195;50.854;2.860;2023-04-01T08:29:54;2.85;;;1.13;;
78844;SDS011;68195;50.854;2.860;2023-04-01T08:32:25;1.83;;;1.42;;
78844;SDS011;68195;50.854;2.860;2023-04-01T08:35:04;1.88;;;1.70;;
78844;SDS011;68195;50.854;2.860;2023-04-01T08:37:52;1.73;;;1.25;;
78844;SDS011;68195;50.854;2.860;2023-04-01T08:53:33;2.40;;;1.10;;
78844;SDS011;68195;50.854;2.860;2023-04-01T08:56:25;2.70;;;1.45;;
78844;SDS011;68195;50.854;2.860;2023-04-01T08:58:59;4.82;;;1.65;;
78844;SDS011;68195;50.854;2.860;2023-04-01T09:12:35;3.80;;;1.80;;
78844;SDS011;68195;50.854;2.860;2023-04-01T09:24:12;3.25;;;1.73;;
78844;SDS011;68195;50.854;2.860;2023-04-01T09:40:15;4.55;;;1.63;;
78844;SDS011;68195;50.854;2.860;2023-04-01T09:50:39;2.90;;;1.27;;
78844;SDS011;68195;50.854;2.860;2023-04-01T09:53:33;2.70;;;1.48;;
78844;SDS011;68195;50.854;2.860;2023-04-01T10:09:56;3.90;;;1.85;;
78844;SDS011;68195;50.854;2.860;2023-04-01T10:52:25;4.05;;;1.80;;
78844;SDS011;68195;50.854;2.860;2023-04-01T11:09:19;1.73;;;1.27;;
78844;SDS011;68195;50.854;2.860;2023-04-01T11:12:04;2.40;;;1.40;;
78844;SDS011;68195;50.854;2.860;2023-04-01T11:31:22;4.28;;;1.65;;
78844;SDS011;68195;50.854;2.860;2023-04-01T11:45:21;1.95;;;1.23;;
78844;SDS011;68195;50.854;2.860;2023-04-01T11:48:11;3.75;;;1.60;;
78844;SDS011;68195;50.854;2.860;2023-04-01T12:01:54;5.75;;;1.50;;
78844;SDS011;68195;50.854;2.860;2023-04-01T12:09:44;2.00;;;1.15;;
78844;SDS011;68195;50.854;2.860;2023-04-01T12:12:16;2.05;;;1.13;;
78844;SDS011;68195;50.854;2.860;2023-04-01T12:22:59;2.30;;;1.73;;
78844;SDS011;68195;50.854;2.860;2023-04-01T12:31:10;5.35;;;1.60;;
78844;SDS011;68195;50.854;2.860;2023-04-01T12:50:10;3.42;;;1.58;;
78844;SDS011;68195;50.854;2.860;2023-04-01T12:53:07;2.17;;;1.88;;
78844;SDS011;68195;50.854;2.860;2023-04-01T12:55:35;2.70;;;1.52;;
78844;SDS011;68195;50.854;2.860;2023-04-01T12:58:15;2.88;;;1.85;;
78844;SDS011;68195;50.854;2.860;2023-04-01T13:17:58;1.58;;;1.17;;
78844;SDS011;68195;50.854;2.860;2023-04-01T13:36:46;3.35;;;1.27;;
78844;SDS011;68195;50.854;2.860;2023-04-01T13:39:18;2.35;;;1.30;;
78844;SDS011;68195;50.854;2.860;2023-04-01T13:44:35;2.33;;;1.10;;
78844;SDS011;68195;50.854;2.860;2023-04-01T13:47:10;2.00;;;1.17;;
78844;SDS011;68195;50.854;2.860;2023-04-01T14:12:18;1.77;;;0.95;;
78844;SDS011;68195;50.854;2.860;2023-04-01T14:15:14;2.70;;;0.70;;
78844;SDS011;68195;50.854;2.860;2023-04-01T14:17:51;1.40;;;1.20;;
78844;SDS011;68195;50.854;2.860;2023-04-01T14:50:17;3.25;;;0.98;;
78844;SDS011;68195;50.854;2.860;2023-04-01T14:58:12;1.45;;;0.95;;
78844;SDS011;68195;50.854;2.860;2023-04-01T15:12:13;1.48;;;0.90;;
78844;SDS011;68195;50.854;2.860;2023-04-01T15:23:13;3.92;;;1.40;;
78844;SDS011;68195;50.854;2.860;2023-04-01T15:31:48;2.90;;;1.38;;
78844;SDS011;68195;50.854;2.860;2023-04-01T15:34:32;2.50;;;1.40;;
78844;SDS011;68195;50.854;2.860;2023-04-01T15:37:20;3.22;;;1.55;;
78844;SDS011;68195;50.854;2.860;2023-04-01T15:54:06;5.88;;;2.22;;
78844;SDS011;68195;50.854;2.860;2023-04-01T16:13:46;3.22;;;1.25;;
78844;SDS011;68195;50.854;2.860;2023-04-01T16:24:20;2.50;;;1.52;;
78844;SDS011;68195;50.854;2.860;2023-04-01T16:27:07;5.25;;;1.10;;
78844;SDS011;68195;50.854;2.860;2023-04-01T16:29:45;4.97;;;2.15;;
78844;SDS011;68195;50.854;2.860;2023-04-01T16:35:37;4.97;;;1.38;;
78844;SDS011;68195;50.854;2.860;2023-04-01T16:41:11;4.15;;;1.20;;
78844;SDS011;68195;50.854;2.860;2023-04-01T16:43:45;2.33;;;1.05;;
78844;SDS011;68195;50.854;2.860;2023-04-01T16:49:13;3.80;;;1.10;;
78844;SDS011;68195;50.854;2.860;2023-04-01T16:52:03;1.95;;;1.80;;
78844;SDS011;68195;50.854;2.860;2023-04-01T17:02:10;3.40;;;1.60;;
78844;SDS011;68195;50.854;2.860;2023-04-01T17:04:53;4.57;;;1.25;;
78844;SDS011;68195;50.854;2.860;2023-04-01T17:16:01;3.45;;;1.65;;
78844;SDS011;68195;50.854;2.860;2023-04-01T17:24:27;4.82;;;2.47;;
78844;SDS011;68195;50.854;2.860;2023-04-01T17:27:11;6.28;;;2.88;;
78844;SDS011;68195;50.854;2.860;2023-04-01T17:43:47;6.03;;;2.25;;
78844;SDS011;68195;50.854;2.860;2023-04-01T17:49:28;5.53;;;2.38;;
78844;SDS011;68195;50.854;2.860;2023-04-01T18:13:49;4.10;;;2.10;;
78844;SDS011;68195;50.854;2.860;2023-04-01T18:16:50;4.28;;;2.08;;
78844;SDS011;68195;50.854;2.860;2023-04-01T18:19:45;7.57;;;3.80;;
78844;SDS011;68195;50.854;2.860;2023-04-01T18:22:29;6.05;;;2.00;;
78844;SDS011;68195;50.854;2.860;2023-04-01T18:39:10;6.82;;;3.10;;
78844;SDS011;68195;50.854;2.860;2023-04-01T18:53:17;6.88;;;2.25;;
78844;SDS011;68195;50.854;2.860;2023-04-01T18:56:03;7.15;;;2.53;;
78844;SDS011;68195;50.854;2.860;2023-04-01T19:06:45;5.47;;;2.28;;
78844;SDS011;68195;50.854;2.860;2023-04-01T19:09:42;5.32;;;2.55;;
78844;SDS011;68195;50.854;2.860;2023-04-01T19:12:30;6.63;;;3.22;;
78844;SDS011;68195;50.854;2.860;2023-04-01T19:15:07;5.35;;;2.50;;
78844;SDS011;68195;50.854;2.860;2023-04-01T19:26:17;3.75;;;2.33;;
78844;SDS011;68195;50.854;2.860;2023-04-01T19:29:04;3.55;;;2.30;;
78844;SDS011;68195;50.854;2.860;2023-04-01T19:37:50;6.18;;;2.67;;
78844;SDS011;68195;50.854;2.860;2023-04-01T19:40:51;5.47;;;2.72;;
78844;SDS011;68195;50.854;2.860;2023-04-01T19:43:39;10.45;;;3.40;;
78844;SDS011;68195;50.854;2.860;2023-04-01T19:52:07;9.80;;;3.78;;
78844;SDS011;68195;50.854;2.860;2023-04-01T20:00:16;7.85;;;3.33;;
78844;SDS011;68195;50.854;2.860;2023-04-01T20:03:55;14.48;;;4.75;;
78844;SDS011;68195;50.854;2.860;2023-04-01T20:11:21;11.23;;;4.20;;
78844;SDS011;68195;50.854;2.860;2023-04-01T20:22:17;15.30;;;5.60;;
78844;SDS011;68195;50.854;2.860;2023-04-01T20:27:56;14.50;;;5.30;;
78844;SDS011;68195;50.854;2.860;2023-04-01T20:36:46;18.15;;;6.38;;
78844;SDS011;68195;50.854;2.860;2023-04-01T21:06:44;23.63;;;7.90;;
78844;SDS011;68195;50.854;2.860;2023-04-01T21:23:06;24.10;;;9.30;;
78844;SDS011;68195;50.854;2.860;2023-04-01T21:37:08;25.63;;;9.60;;
78844;SDS011;68195;50.854;2.860;2023-04-01T21:42:16;24.63;;;9.25;;
78844;SDS011;68195;50.854;2.860;2023-04-01T21:50:43;24.20;;;9.95;;
78844;SDS011;68195;50.854;2.860;2023-04-01T21:59:27;29.80;;;9.68;;
78844;SDS011;68195;50.854;2.860;2023-04-01T22:05:18;29.30;;;9.00;;
78844;SDS011;68195;50.854;2.860;2023-04-01T22:27:03;23.17;;;9.63;;
78844;SDS011;68195;50.854;2.860;2023-04-01T22:29:52;19.42;;;8.48;;
78844;SDS011;68195;50.854;2.860;2023-04-01T22:32:24;24.38;;;9.68;;
78844;SDS011;68195;50.854;2.860;2023-04-01T22:35:08;20.27;;;10.35;;
78844;SDS011;68195;50.854;2.860;2023-04-01T22:37:52;24.77;;;9.75;;
78844;SDS011;68195;50.854;2.860;2023-04-01T22:41:02;24.05;;;8.32;;
78844;SDS011;68195;50.854;2.860;2023-04-01T22:43:27;22.83;;;10.50;;
78844;SDS011;68195;50.854;2.860;2023-04-01T22:51:49;16.05;;;7.78;;
78844;SDS011;68195;50.854;2.860;2023-04-01T22:57:28;15.27;;;7.88;;
78844;SDS011;68195;50.854;2.860;2023-04-01T23:02:59;17.08;;;8.70;;
78844;SDS011;68195;50.854;2.860;2023-04-01T23:05:31;22.00;;;9.35;;
78844;SDS011;68195;50.854;2.860;2023-04-01T23:10:57;21.50;;;9.45;;
78844;SDS011;68195;50.854;2.860;2023-04-01T23:13:37;23.20;;;9.10;;
78844;SDS011;68195;50.854;2.860;2023-04-01T23:16:09;22.17;;;9.70;;
78844;SDS011;68195;50.854;2.860;2023-04-01T23:18:37;19.98;;;9.88;;
78844;SDS011;68195;50.854;2.860;2023-04-01T23:21:25;20.15;;;8.15;;
78844;SDS011;68195;50.854;2.860;2023-04-01T23:26:58;24.00;;;10.75;;
78844;SDS011;68195;50.854;2.860;2023-04-01T23:29:31;28.00;;;12.27;;
78844;SDS011;68195;50.854;2.860;2023-04-01T23:32:17;27.08;;;11.85;;
78844;SDS011;68195;50.854;2.860;2023-04-01T23:34:47;25.17;;;11.93;;
78844;SDS011;68195;50.854;2.860;2023-04-01T23:37:15;25.17;;;12.15;;
78844;SDS011;68195;50.854;2.860;2023-04-01T23:39:44;27.23;;;12.38;;
78844;SDS011;68195;50.854;2.860;2023-04-01T23:44:51;26.95;;;12.98;;
78844;SDS011;68195;50.854;2.860;2023-04-01T23:47:23;24.85;;;12.05;;
78844;SDS011;68195;50.854;2.860;2023-04-01T23:49:53;25.75;;;12.82;;
78844;SDS011;68195;50.854;2.860;2023-04-01T23:54:48;28.27;;;11.03;;
78844;SDS011;68195;50.854;2.860;2023-04-01T23:57:15;31.25;;;11.35;;
78844;SDS011;68195;50.854;2.860;2023-04-01T23:59:46;23.10;;;10.80;;
